Time;durP1;ratioP1;P1;durP2;ratioP2;P2;SDS_P1;SDS_P2;PMS_P1;PMS_P2;Temp;Humidity;BMP_temperature;BMP_pressure;BME280_temperature;BME280_humidity;BME280_pressure;Samples;Min_cycle;Max_cycle;Signal;HPM_P1;HPM_P2
2022/12/11 00:00:14;;;;;;;86.47;37.17;;;;;;;-141.97;100.00;47888.13;5035067;28;20170;-83
2022/12/11 00:02:40;;;;;;;92.00;37.63;;;;;;;-141.97;100.00;47903.50;5057780;28;20178;-84
2022/12/11 00:05:06;;;;;;;89.80;38.10;;;;;;;-141.97;100.00;47920.81;5066280;28;20174;-83
2022/12/11 00:07:31;;;;;;;85.30;37.67;;;;;;;-141.97;100.00;48051.53;5060093;28;20181;-83
2022/12/11 00:09:57;;;;;;;85.30;34.73;;;;;;;-141.97;100.00;47953.50;5059139;28;20169;-85
2022/12/11 00:12:22;;;;;;;85.30;38.20;;;;;;;-141.97;100.00;47895.81;5056142;28;20253;-85
2022/12/11 00:14:48;;;;;;;87.73;38.40;;;;;;;-141.97;100.00;47936.19;5054645;28;20233;-84
2022/12/11 00:17:13;;;;;;;86.27;37.53;;;;;;;-141.97;100.00;47936.19;5054988;28;20200;-85
2022/12/11 00:19:38;;;;;;;91.03;38.67;;;;;;;-141.97;100.00;47926.56;5054763;28;20256;-83
2022/12/11 00:22:04;;;;;;;98.30;39.70;;;;;;;-141.97;100.00;47838.16;5056707;28;20170;-84
2022/12/11 00:24:29;;;;;;;94.57;39.50;;;;;;;-141.97;100.00;47922.72;5062247;28;20181;-84
2022/12/11 00:26:55;;;;;;;103.73;41.43;;;;;;;-141.97;100.00;47945.81;5068743;28;20169;-84
2022/12/11 00:29:20;;;;;;;107.90;42.13;;;;;;;-141.97;100.00;47891.97;5068837;28;20170;-84
2022/12/11 00:31:45;;;;;;;98.53;41.70;;;;;;;-141.97;100.00;47834.31;5050769;28;20212;-83
2022/12/11 00:34:11;;;;;;;87.50;37.03;;;;;;;-141.97;100.00;48007.31;5034388;28;20571;-83
2022/12/11 00:36:37;;;;;;;96.27;41.87;;;;;;;-141.97;100.00;47918.88;5034078;28;20225;-83
2022/12/11 00:39:03;;;;;;;94.57;39.37;;;;;;;-141.97;100.00;47895.81;5033992;28;20228;-85
2022/12/11 00:41:30;;;;;;;99.33;39.00;;;;;;;-141.97;100.00;47945.81;5033190;28;20183;-83
2022/12/11 00:43:55;;;;;;;99.40;41.10;;;;;;;-141.97;100.00;47938.09;5033801;28;20639;-84
2022/12/11 00:46:20;;;;;;;97.77;41.20;;;;;;;-141.97;100.00;47911.19;5034042;28;20173;-83
2022/12/11 00:48:48;;;;;;;101.83;40.57;;;;;;;-141.97;100.00;47938.09;5035504;28;20181;-84
2022/12/11 00:51:14;;;;;;;89.03;38.97;;;;;;;-141.97;100.00;47872.75;5035961;28;20166;-83
2022/12/11 00:53:39;;;;;;;107.37;41.23;;;;;;;-141.97;100.00;47938.09;5034389;28;20162;-83
2022/12/11 00:56:13;;;;;;;88.90;38.27;;;;;;;-141.97;100.00;47988.09;5034006;28;20545;-83
2022/12/11 00:58:38;;;;;;;88.10;38.03;;;;;;;-141.97;100.00;47843.91;5034050;28;20209;-83
2022/12/11 01:01:08;;;;;;;87.40;37.47;;;;;;;-141.97;100.00;47903.50;5034193;28;20174;-84
2022/12/11 01:03:34;;;;;;;95.17;38.57;;;;;;;-141.97;100.00;47934.25;5039793;28;20181;-83
2022/12/11 01:05:59;;;;;;;86.23;37.17;;;;;;;-141.97;100.00;47897.75;5052773;28;20183;-84
2022/12/11 01:08:25;;;;;;;88.93;37.40;;;;;;;-141.97;100.00;47922.72;5053385;28;20195;-84
2022/12/11 01:10:50;;;;;;;87.77;36.90;;;;;;;-141.97;100.00;47938.09;5052999;28;20247;-83
2022/12/11 01:13:16;;;;;;;82.83;36.50;;;;;;;-141.97;100.00;47878.53;5051530;28;20189;-83
2022/12/11 01:15:43;;;;;;;77.77;33.83;;;;;;;-141.97;100.00;47920.81;5052957;28;20177;-82
2022/12/11 01:18:14;;;;;;;78.17;33.83;;;;;;;-141.97;100.00;47907.34;5052929;28;20204;-84
2022/12/11 01:20:41;;;;;;;82.93;33.67;;;;;;;-141.97;100.00;47920.81;5053165;28;20172;-84
2022/12/11 01:23:09;;;;;;;80.43;33.67;;;;;;;-141.97;100.00;47930.41;5053027;28;20169;-84
2022/12/11 01:25:37;;;;;;;77.47;33.03;;;;;;;-141.97;100.00;47899.66;5052534;28;20192;-83
2022/12/11 01:28:02;;;;;;;74.03;31.97;;;;;;;-141.97;100.00;47924.66;5051492;28;20230;-84
2022/12/11 01:30:28;;;;;;;71.60;31.37;;;;;;;-141.97;100.00;47863.13;5052247;28;20567;-84
2022/12/11 01:32:53;;;;;;;78.37;32.27;;;;;;;-141.97;100.00;47920.81;5034980;28;20204;-84
2022/12/11 01:35:19;;;;;;;72.20;30.87;;;;;;;-141.97;100.00;47930.41;5032078;28;20225;-84
2022/12/11 01:37:45;;;;;;;73.83;30.30;;;;;;;-141.97;100.00;47907.34;5032363;28;20197;-83
2022/12/11 01:40:13;;;;;;;66.43;30.43;;;;;;;-141.97;100.00;47945.81;5032765;28;20245;-83
2022/12/11 01:42:39;;;;;;;75.30;31.73;;;;;;;-141.97;100.00;47938.09;5032698;28;20177;-84
2022/12/11 01:45:25;;;;;;;71.00;31.87;;;;;;;-141.97;100.00;47949.66;5032113;28;20546;-83
2022/12/11 01:48:09;;;;;;;72.17;30.47;;;;;;;-141.97;100.00;47930.41;5032146;28;20185;-83
2022/12/11 01:50:41;;;;;;;68.00;30.53;;;;;;;-141.97;100.00;47886.22;5032202;28;20239;-84
2022/12/11 01:53:10;;;;;;;77.00;32.10;;;;;;;-141.97;100.00;47932.34;5031084;28;20174;-83
2022/12/11 01:55:37;;;;;;;71.60;32.23;;;;;;;-141.97;100.00;47926.56;5031733;28;20167;-84
2022/12/11 01:58:04;;;;;;;75.63;31.93;;;;;;;-141.97;100.00;48003.47;5047187;28;20367;-84
2022/12/11 02:00:29;;;;;;;75.70;31.80;;;;;;;-141.97;100.00;47936.19;5032648;28;20260;-83
2022/12/11 02:02:55;;;;;;;73.37;32.83;;;;;;;-141.97;100.00;47903.50;5046820;28;20319;-84
2022/12/11 02:05:20;;;;;;;79.03;33.17;;;;;;;-141.97;100.00;47899.66;5031622;28;20173;-83
2022/12/11 02:07:53;;;;;;;74.40;33.40;;;;;;;-141.97;100.00;47926.56;5030408;28;20316;-83
2022/12/11 02:10:18;;;;;;;69.13;32.60;;;;;;;-141.97;100.00;47897.75;5030267;28;20295;-83
2022/12/11 02:12:55;;;;;;;83.53;36.00;;;;;;;-141.97;100.00;47941.94;5030556;28;20176;-84
2022/12/11 02:15:36;;;;;;;157.73;61.83;;;;;;;-141.97;100.00;47870.81;5039776;28;20162;-83
2022/12/11 02:18:16;;;;;;;439.80;178.87;;;;;;;-141.97;100.00;47930.41;5035927;28;20205;-84
2022/12/11 02:21:07;;;;;;;289.87;109.87;;;;;;;-141.97;100.00;47918.88;5033883;28;20176;-84
2022/12/11 02:24:10;;;;;;;258.60;103.13;;;;;;;-141.97;100.00;47941.94;5032411;28;20200;-83
2022/12/11 02:27:03;;;;;;;227.83;88.97;;;;;;;-141.97;100.00;47915.03;5032195;28;20178;-84
2022/12/11 02:29:46;;;;;;;223.60;85.90;;;;;;;-141.97;100.00;47915.03;5032197;28;20279;-84
2022/12/11 02:32:44;;;;;;;212.20;83.30;;;;;;;-141.97;100.00;47934.25;5030363;28;20178;-84
2022/12/11 02:35:23;;;;;;;176.47;70.37;;;;;;;-141.97;100.00;47920.81;5031532;28;20248;-84
2022/12/11 02:37:56;;;;;;;127.57;51.17;;;;;;;-141.97;100.00;47915.03;5031403;28;20202;-84
2022/12/11 02:40:25;;;;;;;128.27;51.73;;;;;;;-141.97;100.00;47938.09;5030042;28;20630;-84
2022/12/11 02:42:53;;;;;;;133.53;53.70;;;;;;;-141.97;100.00;47911.19;5030270;28;20649;-84
2022/12/11 02:45:22;;;;;;;118.33;48.63;;;;;;;-141.97;100.00;47915.03;5031807;28;20264;-84
2022/12/11 02:47:48;;;;;;;103.07;42.30;;;;;;;-141.97;100.00;47909.28;5031929;28;20173;-85
2022/12/11 02:50:18;;;;;;;123.33;58.67;;;;;;;-141.97;100.00;47924.66;5031305;28;20168;-85
2022/12/11 02:52:46;;;;;;;412.63;216.67;;;;;;;-141.97;100.00;47976.56;5031368;28;20166;-84
2022/12/11 02:55:15;;;;;;;292.77;123.17;;;;;;;-141.97;100.00;47918.88;5031064;28;20653;-84
2022/12/11 02:57:50;;;;;;;300.80;131.07;;;;;;;-141.97;100.00;47909.28;5031177;28;20205;-84
2022/12/11 03:00:16;;;;;;;306.20;130.77;;;;;;;-141.97;100.00;47884.28;5032230;28;20629;-85
2022/12/11 03:02:42;;;;;;;547.13;288.43;;;;;;;-141.97;100.00;47915.03;5046672;28;20701;-85
2022/12/11 03:05:10;;;;;;;479.40;238.13;;;;;;;-141.97;100.00;47949.66;5032594;28;20193;-84
2022/12/11 03:07:39;;;;;;;292.93;119.50;;;;;;;-141.97;100.00;47845.84;5034748;28;20173;-85
2022/12/11 03:10:07;;;;;;;102.37;43.47;;;;;;;-141.97;100.00;47903.50;5034815;28;20593;-83
2022/12/11 03:12:37;;;;;;;73.53;28.73;;;;;;;-141.97;100.00;47951.56;5034934;28;20523;-83
2022/12/11 03:15:06;;;;;;;67.57;29.80;;;;;;;-141.97;100.00;47940.03;5035126;28;20634;-83
2022/12/11 03:18:10;;;;;;;68.13;29.80;;;;;;;-141.97;100.00;47899.66;5034960;28;20578;-84
2022/12/11 03:20:43;;;;;;;60.87;26.43;;;;;;;-141.97;100.00;47920.81;5034727;28;20264;-84
2022/12/11 03:23:50;;;;;;;64.60;27.57;;;;;;;-141.97;100.00;47913.13;5034870;28;20627;-83
2022/12/11 03:26:18;;;;;;;90.77;38.93;;;;;;;-141.97;100.00;47901.59;5015844;28;20194;-83
2022/12/11 03:28:54;;;;;;;90.83;38.33;;;;;;;-141.97;100.00;47861.22;5032675;28;20255;-83
2022/12/11 03:31:28;;;;;;;72.60;30.73;;;;;;;-141.97;100.00;47922.72;5032036;28;20668;-84
2022/12/11 03:33:59;;;;;;;64.03;28.60;;;;;;;-141.97;100.00;47915.03;5032602;28;20173;-84
2022/12/11 03:36:32;;;;;;;68.37;29.93;;;;;;;-141.97;100.00;47918.88;5032680;28;20221;-83
2022/12/11 03:39:21;;;;;;;47.53;19.03;;;;;;;-141.97;100.00;47901.59;5034740;28;20260;-84
2022/12/11 03:41:49;;;;;;;48.33;22.13;;;;;;;-141.97;100.00;47903.50;5016432;28;20201;-83
2022/12/11 03:44:15;;;;;;;45.43;17.63;;;;;;;-141.97;100.00;47922.72;5033027;28;20186;-84
2022/12/11 03:46:43;;;;;;;44.93;18.67;;;;;;;-141.97;100.00;47903.50;5032736;28;20174;-84
2022/12/11 03:49:16;;;;;;;36.03;14.50;;;;;;;-141.97;100.00;47905.44;5032883;28;20554;-84
2022/12/11 03:51:45;;;;;;;41.57;18.03;;;;;;;-141.97;100.00;47913.13;5033368;28;20267;-83
2022/12/11 03:54:11;;;;;;;38.10;15.60;;;;;;;-141.97;100.00;47930.41;5020477;28;20265;-83
2022/12/11 03:56:38;;;;;;;39.73;16.50;;;;;;;-141.97;100.00;47928.50;5037516;28;20170;-84
2022/12/11 03:59:04;;;;;;;55.90;24.73;;;;;;;-141.97;100.00;47886.22;5036495;28;20174;-83
2022/12/11 04:01:29;;;;;;;75.97;36.03;;;;;;;-141.97;100.00;47926.56;5033523;28;20198;-83
2022/12/11 04:03:55;;;;;;;148.60;72.37;;;;;;;-141.97;100.00;47926.56;5034434;28;20549;-83
2022/12/11 04:06:20;;;;;;;128.30;65.87;;;;;;;-141.97;100.00;47876.59;5032881;28;20487;-83
2022/12/11 04:08:46;;;;;;;81.37;41.43;;;;;;;-141.97;100.00;47915.03;5033796;28;20654;-84
2022/12/11 04:16:39;;;;;;;72.93;34.90;;;;;;;-141.97;100.00;47936.19;5032365;28;20197;-84
2022/12/11 04:24:32;;;;;;;72.17;38.40;;;;;;;-141.97;100.00;47930.41;5033823;28;20177;-84
2022/12/11 04:26:58;;;;;;;54.83;28.20;;;;;;;-141.97;100.00;47938.09;5033716;28;20174;-84
2022/12/11 04:29:24;;;;;;;46.90;20.53;;;;;;;-141.97;100.00;47899.66;5033882;28;20175;-84
2022/12/11 04:31:49;;;;;;;44.13;19.93;;;;;;;-141.97;100.00;47916.97;5039918;28;20202;-85
2022/12/11 04:34:15;;;;;;;42.50;21.50;;;;;;;-141.97;100.00;47918.88;5044283;28;20194;-84
2022/12/11 04:36:41;;;;;;;46.43;25.43;;;;;;;-141.97;100.00;47911.19;5039523;28;20218;-84
2022/12/11 04:39:06;;;;;;;44.10;21.77;;;;;;;-141.97;100.00;47907.34;5039680;28;20166;-83
2022/12/11 04:41:32;;;;;;;41.63;21.50;;;;;;;-141.97;100.00;47926.56;5036821;28;20500;-84
2022/12/11 04:43:58;;;;;;;49.00;21.33;;;;;;;-141.97;100.00;47915.03;5037023;28;20192;-84
2022/12/11 04:46:24;;;;;;;52.60;28.37;;;;;;;-141.97;100.00;47872.75;5035638;28;20698;-84
2022/12/11 04:48:51;;;;;;;64.13;35.47;;;;;;;-141.97;100.00;47907.34;5034418;28;20174;-84
2022/12/11 04:51:18;;;;;;;43.50;19.43;;;;;;;-141.97;100.00;47959.25;5034786;28;20178;-83
2022/12/11 04:53:44;;;;;;;87.13;40.03;;;;;;;-141.97;100.00;47934.25;5040661;28;20197;-84
2022/12/11 04:56:12;;;;;;;46.63;22.67;;;;;;;-141.97;100.00;47915.03;5046410;28;20159;-84
2022/12/11 04:58:38;;;;;;;68.80;35.80;;;;;;;-141.97;100.00;47947.72;5045793;28;20229;-83
2022/12/11 05:01:12;;;;;;;46.47;21.33;;;;;;;-141.97;100.00;47928.50;5058617;28;20209;-84
2022/12/11 05:03:39;;;;;;;44.20;20.93;;;;;;;-141.97;100.00;47920.81;5056366;28;20636;-84
2022/12/11 05:06:05;;;;;;;35.77;18.33;;;;;;;-141.97;100.00;47907.34;5052379;28;20256;-84
2022/12/11 05:08:30;;;;;;;48.47;24.90;;;;;;;-141.97;100.00;47876.59;5053483;28;20218;-84
2022/12/11 05:11:01;;;;;;;67.30;33.97;;;;;;;-141.97;100.00;47926.56;5051918;28;20561;-84
2022/12/11 05:13:28;;;;;;;90.10;40.60;;;;;;;-141.97;100.00;47953.50;5051544;28;20254;-84
2022/12/11 05:15:53;;;;;;;71.57;34.27;;;;;;;-141.97;100.00;47932.34;5052905;28;20528;-84
2022/12/11 05:18:19;;;;;;;62.53;31.90;;;;;;;-141.97;100.00;47941.94;5052775;28;20197;-85
2022/12/11 05:20:44;;;;;;;66.83;33.57;;;;;;;-141.97;100.00;47915.03;5052551;28;20169;-83
2022/12/11 05:23:10;;;;;;;445.70;237.80;;;;;;;-141.97;100.00;47884.28;5052643;28;20170;-83
2022/12/11 05:25:36;;;;;;;191.23;98.63;;;;;;;-141.97;100.00;47930.41;5052639;28;20172;-83
2022/12/11 05:28:01;;;;;;;146.90;74.97;;;;;;;-141.97;100.00;47903.50;5052721;28;20253;-83
2022/12/11 05:30:26;;;;;;;66.53;32.90;;;;;;;-141.97;100.00;47916.97;5045727;28;20177;-83
2022/12/11 05:32:52;;;;;;;73.30;37.80;;;;;;;-141.97;100.00;47891.97;5032440;28;20786;-83
2022/12/11 05:35:17;;;;;;;108.67;48.50;;;;;;;-141.97;100.00;47903.50;5032218;28;20300;-83
2022/12/11 05:37:43;;;;;;;64.33;31.83;;;;;;;-141.97;100.00;47916.97;5032116;28;20221;-83
2022/12/11 05:40:11;;;;;;;155.57;64.57;;;;;;;-141.97;100.00;47915.03;5031303;28;20177;-85
2022/12/11 05:42:37;;;;;;;166.87;72.50;;;;;;;-141.97;100.00;47905.44;5032812;28;20162;-84
2022/12/11 05:45:03;;;;;;;101.37;48.37;;;;;;;-141.97;100.00;47895.81;5031827;28;20201;-87
2022/12/11 05:47:30;;;;;;;66.63;34.03;;;;;;;-141.97;100.00;47884.28;5032794;28;20162;-85
2022/12/11 05:49:55;;;;;;;64.93;30.93;;;;;;;-141.97;100.00;47911.19;5032880;28;20166;-86
2022/12/11 05:52:21;;;;;;;64.50;31.33;;;;;;;-141.97;100.00;47888.13;5032241;28;20668;-85
2022/12/11 05:54:49;;;;;;;75.90;38.93;;;;;;;-141.97;100.00;47940.03;5032473;28;20237;-85
2022/12/11 05:57:15;;;;;;;76.50;37.60;;;;;;;-141.97;100.00;47918.88;5032011;28;20194;-85
2022/12/11 05:59:40;;;;;;;112.90;52.50;;;;;;;-141.97;100.00;47849.69;5034891;28;20221;-85
2022/12/11 06:02:06;;;;;;;180.77;76.37;;;;;;;-141.97;100.00;47767.03;5047366;28;20195;-87
2022/12/11 06:04:32;;;;;;;61.23;30.57;;;;;;;-141.97;100.00;47820.84;5031186;28;20666;-85
2022/12/11 06:06:57;;;;;;;65.37;31.93;;;;;;;-141.97;100.00;47997.69;5048165;28;20178;-85
2022/12/11 06:09:22;;;;;;;66.10;30.13;;;;;;;-141.97;100.00;48030.38;5034105;28;20657;-84
2022/12/11 06:11:48;;;;;;;62.77;30.20;;;;;;;-141.97;100.00;47895.81;5032788;28;20162;-85
2022/12/11 06:14:13;;;;;;;72.20;34.53;;;;;;;-141.97;100.00;47934.25;5032099;28;20188;-86
2022/12/11 06:16:38;;;;;;;63.80;29.17;;;;;;;-141.97;100.00;47918.88;5032027;28;20416;-85
2022/12/11 06:19:05;;;;;;;51.77;24.00;;;;;;;-141.97;100.00;47861.22;5032081;28;20186;-85
2022/12/11 06:21:32;;;;;;;45.50;22.23;;;;;;;-141.97;100.00;47903.50;5031881;28;20170;-85
2022/12/11 06:24:00;;;;;;;47.03;21.73;;;;;;;-141.97;100.00;47907.34;5031693;28;20177;-84
2022/12/11 06:26:26;;;;;;;40.00;18.50;;;;;;;-141.97;100.00;47938.09;5033081;28;20166;-83
2022/12/11 06:28:52;;;;;;;39.93;20.93;;;;;;;-141.97;100.00;47893.91;5032198;28;20608;-84
2022/12/11 06:31:18;;;;;;;50.67;25.63;;;;;;;-141.97;100.00;47895.81;5047996;28;20182;-84
2022/12/11 06:33:44;;;;;;;59.10;26.87;;;;;;;-141.97;100.00;48026.53;5053022;28;20185;-85
2022/12/11 06:36:15;;;;;;;48.17;22.80;;;;;;;-141.97;100.00;47918.88;5053118;28;20277;-84
2022/12/11 06:38:41;;;;;;;67.40;34.07;;;;;;;-141.97;100.00;48024.63;5054135;28;20196;-83
2022/12/11 06:41:08;;;;;;;44.97;22.63;;;;;;;-141.97;100.00;47903.50;5054713;28;20166;-84
2022/12/11 06:43:35;;;;;;;44.93;21.70;;;;;;;-141.97;100.00;47888.13;5057416;28;20169;-87
2022/12/11 06:46:15;;;;;;;45.07;23.67;;;;;;;-141.97;100.00;47945.81;5055211;28;20702;-85
2022/12/11 06:48:41;;;;;;;44.20;24.57;;;;;;;-141.97;100.00;47876.59;5055936;28;20177;-85
2022/12/11 06:51:09;;;;;;;51.70;25.23;;;;;;;-141.97;100.00;47895.81;5054095;28;20255;-86
2022/12/11 06:53:34;;;;;;;45.30;25.60;;;;;;;-141.97;100.00;47918.88;5055937;28;20226;-84
2022/12/11 06:56:05;;;;;;;42.00;22.60;;;;;;;-141.97;100.00;48007.31;5055414;28;20189;-84
2022/12/11 06:58:32;;;;;;;48.90;29.77;;;;;;;-141.97;100.00;47928.50;5045546;28;20197;-84
2022/12/11 07:00:57;;;;;;;46.87;25.10;;;;;;;-141.97;100.00;48003.47;5033337;28;20209;-84
2022/12/11 07:03:23;;;;;;;62.30;34.00;;;;;;;-141.97;100.00;47830.47;5065382;28;20205;-84
2022/12/11 07:05:48;;;;;;;37.23;21.07;;;;;;;-141.97;100.00;47924.66;5030061;28;20170;-84
2022/12/11 07:08:14;;;;;;;65.87;33.20;;;;;;;-141.97;100.00;47984.25;5031503;28;20165;-83
2022/12/11 07:10:40;;;;;;;109.30;52.77;;;;;;;-141.97;100.00;47915.03;5031378;28;20170;-85
2022/12/11 07:13:05;;;;;;;90.13;47.17;;;;;;;-141.97;100.00;47890.06;5031123;28;20166;-84
2022/12/11 07:15:31;;;;;;;71.13;38.60;;;;;;;-141.97;100.00;47913.13;5033426;28;20174;-86
2022/12/11 07:17:56;;;;;;;55.43;28.57;;;;;;;-141.97;100.00;47943.88;5035109;28;20677;-83
2022/12/11 07:20:22;;;;;;;65.60;34.80;;;;;;;-141.97;100.00;47913.13;5032806;28;20166;-83
2022/12/11 07:22:50;;;;;;;59.27;30.53;;;;;;;-141.97;100.00;47882.38;5031021;28;20170;-84
2022/12/11 07:25:15;;;;;;;46.10;24.73;;;;;;;-141.97;100.00;47888.13;5029739;28;20759;-82
2022/12/11 07:27:41;;;;;;;45.00;23.00;;;;;;;-141.97;100.00;47934.25;5031375;28;20166;-84
2022/12/11 07:30:08;;;;;;;61.10;31.60;;;;;;;-141.97;100.00;47941.94;5050029;28;20169;-85
2022/12/11 07:32:33;;;;;;;47.30;25.83;;;;;;;-141.97;100.00;47888.13;5049627;28;20177;-85
2022/12/11 07:34:59;;;;;;;54.10;27.53;;;;;;;-141.97;100.00;47861.22;5050406;28;20247;-84
2022/12/11 07:37:24;;;;;;;45.63;24.87;;;;;;;-141.97;100.00;47895.81;5050938;28;20563;-84
2022/12/11 07:39:50;;;;;;;49.60;25.73;;;;;;;-141.97;100.00;47893.91;5050761;28;20622;-85
2022/12/11 07:42:15;;;;;;;51.77;27.03;;;;;;;-141.97;100.00;47834.31;5050412;28;20189;-84
2022/12/11 07:44:40;;;;;;;57.50;28.83;;;;;;;-141.97;100.00;47847.75;5049720;28;20197;-84
2022/12/11 07:47:06;;;;;;;54.20;28.63;;;;;;;-141.97;100.00;47849.69;5050755;28;20256;-85
2022/12/11 07:49:31;;;;;;;50.20;25.97;;;;;;;-141.97;100.00;47918.88;5050753;28;20252;-84
2022/12/11 07:51:57;;;;;;;52.50;28.83;;;;;;;-141.97;100.00;47845.84;5053505;28;20177;-84
2022/12/11 07:54:22;;;;;;;51.57;27.33;;;;;;;-141.97;100.00;47893.91;5052916;28;20169;-85
2022/12/11 07:56:48;;;;;;;49.60;25.33;;;;;;;-141.97;100.00;47817.00;5055132;28;20187;-86
2022/12/11 07:59:13;;;;;;;46.90;24.23;;;;;;;-141.97;100.00;47955.41;5038696;28;20628;-85
2022/12/11 08:01:39;;;;;;;51.03;26.63;;;;;;;-141.97;100.00;47911.19;5047459;28;20173;-83
2022/12/11 08:04:06;;;;;;;49.53;26.20;;;;;;;-141.97;100.00;47853.53;5054242;28;20166;-85
2022/12/11 08:06:34;;;;;;;52.33;27.90;;;;;;;-141.97;100.00;47899.66;5054642;28;20177;-83
2022/12/11 08:09:01;;;;;;;51.03;27.33;;;;;;;-141.97;100.00;47903.50;5054269;28;20193;-84
2022/12/11 08:11:27;;;;;;;52.80;26.53;;;;;;;-141.97;100.00;47870.81;5054280;28;20173;-85
2022/12/11 08:13:54;;;;;;;45.33;23.33;;;;;;;-141.97;100.00;47828.53;5054256;28;20201;-84
2022/12/11 08:16:19;;;;;;;41.67;22.47;;;;;;;-141.97;100.00;47909.28;5055078;28;20162;-84
2022/12/11 08:18:46;;;;;;;39.73;22.20;;;;;;;-141.97;100.00;47888.13;5054318;28;20737;-84
2022/12/11 08:21:14;;;;;;;44.97;26.27;;;;;;;-141.97;100.00;47913.13;5053980;28;20205;-84
2022/12/11 08:23:39;;;;;;;37.00;19.17;;;;;;;-141.97;100.00;47911.19;5055016;28;20633;-84
2022/12/11 08:26:06;;;;;;;35.23;18.77;;;;;;;-141.97;100.00;47866.97;5056275;28;20299;-84
2022/12/11 08:28:32;;;;;;;48.00;31.90;;;;;;;-141.97;100.00;47893.91;5054600;28;20252;-85
2022/12/11 08:30:58;;;;;;;36.97;20.47;;;;;;;-141.97;100.00;47915.03;5054309;28;20177;-84
2022/12/11 08:33:24;;;;;;;44.30;22.77;;;;;;;-141.97;100.00;47880.44;5054774;28;20153;-84
2022/12/11 08:35:50;;;;;;;45.40;23.87;;;;;;;-141.97;100.00;47874.69;5054034;28;20233;-84
2022/12/11 08:38:16;;;;;;;40.77;23.93;;;;;;;-141.97;99.43;47882.38;5053621;28;20209;-84
2022/12/11 08:40:41;;;;;;;34.90;16.80;;;;;;;-141.97;97.94;47849.69;5054066;28;20465;-84
2022/12/11 08:43:06;;;;;;;39.70;23.20;;;;;;;-141.97;96.73;47838.16;5053567;28;20170;-84
2022/12/11 08:45:32;;;;;;;37.17;20.93;;;;;;;-141.97;94.90;47865.06;5053962;28;20174;-83
2022/12/11 08:47:58;;;;;;;33.10;18.80;;;;;;;-141.97;93.86;47865.06;5053998;28;20605;-84
2022/12/11 08:50:24;;;;;;;37.97;19.73;;;;;;;-141.97;93.48;47876.59;5054088;28;20569;-83
2022/12/11 08:52:50;;;;;;;31.97;17.30;;;;;;;-141.97;93.48;47922.72;5053682;28;20197;-84
2022/12/11 08:55:15;;;;;;;29.67;18.33;;;;;;;-141.97;92.89;47876.59;5054268;28;20174;-84
2022/12/11 08:57:41;;;;;;;32.20;18.07;;;;;;;-141.97;92.53;47840.06;5048556;28;20276;-85
2022/12/11 09:00:08;;;;;;;37.33;18.80;;;;;;;-141.97;91.94;47884.28;5033424;28;20174;-85
2022/12/11 09:02:34;;;;;;;39.47;19.77;;;;;;;-141.97;90.09;47884.28;5044902;28;20182;-84
2022/12/11 09:04:59;;;;;;;35.50;19.73;;;;;;;-141.97;87.47;47903.50;5068470;28;20192;-84
2022/12/11 09:07:25;;;;;;;34.23;18.80;;;;;;;-141.97;85.42;47767.03;5066537;28;20585;-84
2022/12/11 09:09:53;;;;;;;29.40;15.90;;;;;;;-141.97;83.65;47876.59;5066640;28;20179;-84
2022/12/11 09:12:19;;;;;;;29.17;15.23;;;;;;;-141.97;82.12;47861.22;5066024;28;20165;-83
2022/12/11 09:14:44;;;;;;;25.93;14.10;;;;;;;-141.97;79.41;47876.59;5059690;28;20180;-82
2022/12/11 09:17:09;;;;;;;23.20;13.43;;;;;;;-141.97;77.33;47828.53;5057207;28;20261;-84
2022/12/11 09:19:35;;;;;;;21.57;11.57;;;;;;;-141.97;76.89;47868.91;5058933;28;20216;-84
2022/12/11 09:22:00;;;;;;;21.47;11.43;;;;;;;-141.97;76.54;47922.72;5057755;28;20173;-83
2022/12/11 09:24:26;;;;;;;15.97;9.50;;;;;;;-141.97;76.86;47859.28;5062543;28;20238;-84
2022/12/11 09:26:51;;;;;;;19.70;8.70;;;;;;;-141.97;75.94;47865.06;5077151;28;20177;-84
2022/12/11 09:29:17;;;;;;;18.73;9.60;;;;;;;-141.97;77.36;47888.13;5051462;28;20789;-84
2022/12/11 09:31:42;;;;;;;17.87;9.07;;;;;;;-141.97;77.09;47899.66;5044879;28;20249;-85
2022/12/11 09:34:10;;;;;;;18.27;9.40;;;;;;;-141.97;76.69;47884.28;5043052;28;20224;-85
2022/12/11 09:36:38;;;;;;;17.47;8.40;;;;;;;-141.97;75.48;47853.53;5038071;28;20213;-84
2022/12/11 09:39:06;;;;;;;18.10;8.50;;;;;;;-141.97;75.33;47830.47;5037135;28;20174;-84
2022/12/11 09:41:39;;;;;;;19.60;8.73;;;;;;;-141.97;74.52;47868.91;5035177;28;20246;-84
2022/12/11 09:44:31;;;;;;;22.30;9.00;;;;;;;-141.97;73.64;47863.13;5034213;28;20245;-85
2022/12/11 09:46:57;;;;;;;19.80;8.97;;;;;;;-141.97;73.10;47845.84;5049858;28;20188;-84
2022/12/11 09:49:42;;;;;;;13.13;7.10;;;;;;;-141.97;72.95;47934.25;5052734;28;20248;-84
2022/12/11 09:52:22;;;;;;;15.50;8.07;;;;;;;-141.97;72.79;47851.59;5051238;28;20676;-86
2022/12/11 09:54:59;;;;;;;16.43;9.33;;;;;;;-141.97;71.86;47843.91;5052948;28;20548;-83
2022/12/11 09:57:42;;;;;;;14.73;7.13;;;;;;;-141.97;70.10;47845.84;5052038;28;20292;-83
2022/12/11 10:00:23;;;;;;;19.20;8.93;;;;;;;-141.97;71.12;47865.06;5052437;28;20199;-83
2022/12/11 10:03:30;;;;;;;21.03;9.60;;;;;;;-141.97;73.39;47857.38;5052064;28;20181;-85
2022/12/11 10:06:24;;;;;;;18.90;8.77;;;;;;;-141.97;72.26;47793.94;5051848;28;20174;-86
2022/12/11 10:09:13;;;;;;;14.33;6.67;;;;;;;-141.97;69.18;47847.75;5052001;28;20219;-84
2022/12/11 10:11:50;;;;;;;15.17;8.80;;;;;;;-141.97;71.75;47845.84;5049575;28;20185;-84
2022/12/11 10:14:21;;;;;;;13.73;8.03;;;;;;;-141.97;71.40;47857.38;5031863;28;20189;-84
2022/12/11 10:16:56;;;;;;;13.73;7.37;;;;;;;-141.97;70.71;47830.47;5049937;28;20181;-84
2022/12/11 10:19:26;;;;;;;14.47;7.63;;;;;;;-141.97;70.30;47855.44;5049676;28;20208;-84
2022/12/11 10:21:53;;;;;;;13.57;6.50;;;;;;;-141.97;70.44;47807.41;5049743;28;20189;-85
2022/12/11 10:24:38;;;;;;;12.20;5.13;;;;;;;-141.97;70.08;47822.78;5049451;28;20248;-86
2022/12/11 10:27:19;;;;;;;14.77;5.67;;;;;;;-141.97;68.99;47834.31;5047404;28;20204;-85
2022/12/11 10:29:46;;;;;;;16.13;5.60;;;;;;;-141.97;69.59;47822.78;5029738;28;20197;-83
2022/12/11 10:32:23;;;;;;;13.83;6.27;;;;;;;-141.97;70.26;47801.63;5030034;28;20176;-84
2022/12/11 10:34:54;;;;;;;10.77;5.60;;;;;;;-141.97;70.06;47843.91;5030384;28;20233;-85
2022/12/11 10:37:20;;;;;;;14.60;6.20;;;;;;;-141.97;69.76;47807.41;5029444;28;20406;-85
2022/12/11 10:39:45;;;;;;;11.60;5.63;;;;;;;-141.97;69.23;47865.06;5029359;28;20193;-84
2022/12/11 10:42:21;;;;;;;14.70;7.53;;;;;;;-141.97;68.13;47799.72;5029675;28;20239;-85
2022/12/11 10:44:58;;;;;;;14.80;8.50;;;;;;;-141.97;70.09;47847.75;5029375;28;20201;-84
2022/12/11 10:47:24;;;;;;;14.33;7.00;;;;;;;-141.97;69.41;47809.31;5012839;28;20196;-86
2022/12/11 10:50:01;;;;;;;11.43;5.87;;;;;;;-141.97;68.52;47813.16;5031105;28;20186;-86
2022/12/11 10:52:33;;;;;;;12.23;5.53;;;;;;;-141.97;68.30;47845.84;5031488;28;20622;-85
2022/12/11 10:55:03;;;;;;;13.93;6.47;;;;;;;-141.97;67.87;47880.44;5031428;28;20549;-84
2022/12/11 10:57:36;;;;;;;13.80;7.30;;;;;;;-141.97;67.18;47945.81;5031748;28;20205;-86
2022/12/11 11:00:05;;;;;;;15.50;6.97;;;;;;;-141.97;66.89;47857.38;5038828;28;20174;-84
2022/12/11 11:02:34;;;;;;;39.53;20.23;;;;;;;-141.97;67.87;47868.91;5039260;28;20237;-84
2022/12/11 11:05:29;;;;;;;29.60;12.87;;;;;;;-141.97;68.35;48007.31;5036409;28;20521;-84
2022/12/11 11:08:14;;;;;;;22.83;10.33;;;;;;;-141.97;67.49;47830.47;5030667;28;20190;-85
2022/12/11 11:10:55;;;;;;;16.80;7.33;;;;;;;-141.97;66.51;47957.34;5031143;28;20190;-84
2022/12/11 11:13:23;;;;;;;16.73;7.93;;;;;;;-141.97;67.71;47843.91;5032037;28;20306;-85